createdAt,value
2022-12-20T00:00:07.213Z,18.85
2022-12-20T00:01:12.633Z,17.05
2022-12-20T00:02:15.688Z,17.37
2022-12-20T00:03:19.201Z,20.00
2022-12-20T00:04:21.910Z,18.12
2022-12-20T00:05:24.672Z,18.40
2022-12-20T00:06:27.553Z,20.58
2022-12-20T00:07:30.484Z,19.37
2022-12-20T00:08:35.151Z,18.05
2022-12-20T00:09:38.146Z,18.08
2022-12-20T00:10:44.249Z,14.18
2022-12-20T00:11:47.322Z,13.85
2022-12-20T00:12:50.211Z,18.85
2022-12-20T00:13:53.621Z,18.20
2022-12-20T00:14:56.397Z,18.15
2022-12-20T00:16:12.385Z,17.58
2022-12-20T00:17:15.335Z,18.75
2022-12-20T00:18:18.470Z,18.05
2022-12-20T00:19:21.560Z,17.77
2022-12-20T00:20:25.583Z,13.32
2022-12-20T00:21:29.565Z,17.58
2022-12-20T00:22:32.336Z,17.27
2022-12-20T00:23:36.867Z,16.45
2022-12-20T00:24:39.663Z,18.12
2022-12-20T00:25:42.412Z,15.85
2022-12-20T00:26:45.360Z,16.65
2022-12-20T00:27:49.224Z,17.02
2022-12-20T00:28:52.118Z,18.10
2022-12-20T00:29:54.995Z,15.73
2022-12-20T00:30:57.906Z,17.58
2022-12-20T00:32:00.989Z,16.98
2022-12-20T00:33:03.901Z,16.15
2022-12-20T00:34:06.934Z,17.58
2022-12-20T00:35:09.935Z,17.80
2022-12-20T00:36:12.804Z,17.75
2022-12-20T00:37:15.694Z,17.58
2022-12-20T00:38:18.726Z,17.30
2022-12-20T00:39:21.602Z,18.08
2022-12-20T00:40:24.340Z,17.12
2022-12-20T00:41:29.993Z,17.33
2022-12-20T00:42:33.427Z,17.50
2022-12-20T00:43:37.422Z,17.60
2022-12-20T00:44:40.236Z,16.75
2022-12-20T00:45:43.144Z,16.33
2022-12-20T00:46:46.053Z,17.23
2022-12-20T00:47:48.931Z,18.40
2022-12-20T00:48:52.374Z,17.23
2022-12-20T00:49:55.311Z,18.50
2022-12-20T00:51:00.399Z,18.55
2022-12-20T00:52:03.309Z,15.57
2022-12-20T00:53:05.991Z,17.08
2022-12-20T00:54:08.890Z,18.02
2022-12-20T00:55:11.590Z,17.48
2022-12-20T00:56:14.696Z,15.57
2022-12-20T00:57:17.676Z,16.87
2022-12-20T00:58:21.756Z,17.08
2022-12-20T00:59:24.637Z,17.20
2022-12-20T01:00:27.484Z,17.62
2022-12-20T01:01:33.472Z,17.20
2022-12-20T01:02:36.864Z,17.33
2022-12-20T01:03:40.211Z,16.52
2022-12-20T01:04:43.040Z,18.67
2022-12-20T01:06:00.826Z,18.40
2022-12-20T01:07:04.448Z,15.93
2022-12-20T01:08:07.539Z,17.35
2022-12-20T01:09:12.019Z,17.85
2022-12-20T01:10:15.159Z,17.90
2022-12-20T01:11:38.240Z,16.40
2022-12-20T01:12:41.031Z,16.30
2022-12-20T01:13:46.823Z,16.02
2022-12-20T01:14:49.734Z,16.83
2022-12-20T01:15:52.877Z,17.35
2022-12-20T01:16:55.858Z,17.73
2022-12-20T01:17:59.014Z,16.98
2022-12-20T01:19:02.718Z,17.10
2022-12-20T01:20:07.837Z,17.42
2022-12-20T01:21:13.505Z,15.50
2022-12-20T01:22:16.648Z,16.65
2022-12-20T01:23:19.695Z,17.17
2022-12-20T01:24:22.613Z,17.98
2022-12-20T01:25:25.652Z,17.70
2022-12-20T01:26:29.745Z,17.75
2022-12-20T01:27:32.681Z,17.80
2022-12-20T01:28:37.007Z,17.80
2022-12-20T01:29:40.082Z,17.73
2022-12-20T01:30:43.601Z,17.77
2022-12-20T01:31:46.760Z,17.55
2022-12-20T01:32:49.660Z,17.17
2022-12-20T01:33:53.122Z,16.67
2022-12-20T01:34:56.103Z,18.25
2022-12-20T01:36:01.712Z,17.02
2022-12-20T01:37:04.830Z,18.12
2022-12-20T01:38:07.966Z,16.48
2022-12-20T01:39:16.463Z,17.33
2022-12-20T01:40:19.932Z,17.00
2022-12-20T01:41:26.060Z,16.15
2022-12-20T01:42:28.939Z,15.80
2022-12-20T01:43:54.614Z,17.85
2022-12-20T01:44:59.829Z,16.05
2022-12-20T01:46:02.955Z,17.30
2022-12-20T01:47:06.948Z,16.10
2022-12-20T01:48:11.709Z,15.88
2022-12-20T01:49:18.975Z,17.23
2022-12-20T01:50:22.617Z,16.80
2022-12-20T01:51:26.900Z,16.65
2022-12-20T01:52:43.656Z,18.20
2022-12-20T01:53:49.243Z,16.35
2022-12-20T01:55:11.113Z,17.37
2022-12-20T01:57:33.262Z,17.58
2022-12-20T01:58:39.227Z,14.13
2022-12-20T01:59:44.904Z,16.17
2022-12-20T02:00:48.287Z,17.48
2022-12-20T02:01:51.543Z,17.75
2022-12-20T02:02:56.080Z,17.08
2022-12-20T02:04:00.951Z,17.15
2022-12-20T02:05:04.340Z,17.08
2022-12-20T02:06:24.470Z,14.93
2022-12-20T02:07:33.304Z,17.20
2022-12-20T02:08:36.392Z,16.87
2022-12-20T02:09:40.131Z,16.10
2022-12-20T02:11:10.884Z,17.27
2022-12-20T02:12:25.708Z,17.52
2022-12-20T02:13:50.532Z,17.60
2022-12-20T02:15:17.907Z,15.48
2022-12-20T02:16:29.374Z,17.25
2022-12-20T02:19:07.381Z,16.37
2022-12-20T02:20:25.678Z,15.20
2022-12-20T02:21:38.972Z,16.92
2022-12-20T02:23:12.407Z,16.70
2022-12-20T02:24:36.507Z,16.33
2022-12-20T02:25:54.563Z,16.45
2022-12-20T02:27:15.868Z,17.25
2022-12-20T02:28:45.016Z,16.85
2022-12-20T02:30:08.550Z,16.70
2022-12-20T02:31:17.800Z,16.33
2022-12-20T02:32:26.759Z,17.23
2022-12-20T02:33:30.235Z,16.60
2022-12-20T02:34:37.426Z,17.75
2022-12-20T02:35:42.908Z,17.30
2022-12-20T02:36:45.863Z,18.45
2022-12-20T02:37:57.311Z,19.00
2022-12-20T02:39:00.912Z,18.10
2022-12-20T02:40:08.974Z,15.15
2022-12-20T02:41:22.764Z,16.02
2022-12-20T02:42:28.422Z,17.48
2022-12-20T02:43:52.401Z,16.33
2022-12-20T02:45:16.968Z,18.15
2022-12-20T02:46:21.561Z,16.33
2022-12-20T02:47:50.804Z,17.55
2022-12-20T02:48:59.213Z,15.85
2022-12-20T02:50:04.855Z,17.55
2022-12-20T02:51:09.363Z,14.98
2022-12-20T02:52:15.649Z,17.80
2022-12-20T02:53:19.129Z,15.68
2022-12-20T02:54:22.855Z,17.80
2022-12-20T02:55:39.508Z,14.85
2022-12-20T02:57:04.509Z,16.55
2022-12-20T02:58:16.310Z,14.25
2022-12-20T02:59:25.136Z,16.92
2022-12-20T03:00:35.997Z,17.25
2022-12-20T03:01:45.755Z,16.37
2022-12-20T03:03:10.193Z,16.23
2022-12-20T03:04:13.865Z,17.23
2022-12-20T03:05:18.018Z,17.87
2022-12-20T03:06:21.698Z,18.48
2022-12-20T03:07:24.861Z,15.30
2022-12-20T03:08:27.939Z,17.33
2022-12-20T03:09:33.176Z,17.48
2022-12-20T03:10:36.424Z,17.35
2022-12-20T03:11:39.424Z,18.45
2022-12-20T03:12:42.976Z,16.73
2022-12-20T03:13:46.140Z,16.20
2022-12-20T03:14:49.022Z,18.17
2022-12-20T03:15:52.685Z,17.12
2022-12-20T03:16:55.659Z,17.08
2022-12-20T03:17:58.655Z,17.52
2022-12-20T03:19:01.621Z,17.17
2022-12-20T03:20:06.661Z,15.52
2022-12-20T03:21:10.349Z,18.52
2022-12-20T03:22:13.321Z,17.30
2022-12-20T03:23:16.271Z,17.60
2022-12-20T03:24:19.369Z,18.62
2022-12-20T03:25:25.856Z,13.57
2022-12-20T03:26:28.977Z,17.95
2022-12-20T03:27:32.445Z,17.85
2022-12-20T03:28:35.915Z,16.23
2022-12-20T03:29:38.918Z,18.35
2022-12-20T03:30:42.000Z,16.50
2022-12-20T03:31:45.044Z,17.12
2022-12-20T03:32:47.903Z,17.37
2022-12-20T03:33:50.942Z,17.87
2022-12-20T03:34:53.858Z,16.20
2022-12-20T03:35:56.667Z,16.95
2022-12-20T03:36:59.989Z,16.45
2022-12-20T03:38:03.179Z,16.95
2022-12-20T03:39:06.332Z,17.40
2022-12-20T03:40:10.072Z,16.45
2022-12-20T03:41:13.238Z,16.10
2022-12-20T03:42:16.276Z,15.15
2022-12-20T03:43:19.186Z,15.38
2022-12-20T03:44:22.344Z,16.05
2022-12-20T03:45:25.743Z,15.70
2022-12-20T03:46:28.829Z,15.48
2022-12-20T03:47:32.148Z,12.00
2022-12-20T03:48:35.306Z,15.85
2022-12-20T03:49:38.338Z,14.13
2022-12-20T03:50:42.023Z,16.10
2022-12-20T03:51:45.275Z,16.37
2022-12-20T03:52:48.284Z,16.60
2022-12-20T03:53:51.259Z,15.25
2022-12-20T03:54:54.206Z,17.60
2022-12-20T03:55:57.271Z,15.90
2022-12-20T03:57:00.228Z,15.98
2022-12-20T03:58:03.157Z,16.50
2022-12-20T03:59:06.266Z,14.75
2022-12-20T04:00:09.926Z,16.37
2022-12-20T04:01:25.252Z,16.17
2022-12-20T04:02:28.696Z,14.73
2022-12-20T04:03:32.229Z,16.12
2022-12-20T04:04:35.424Z,14.87
2022-12-20T04:05:38.452Z,15.07
2022-12-20T04:06:41.803Z,15.55
2022-12-20T04:07:45.620Z,15.80
2022-12-20T04:08:49.951Z,11.27
2022-12-20T04:09:53.137Z,16.37
2022-12-20T04:11:14.646Z,15.60
2022-12-20T04:12:17.646Z,15.57
2022-12-20T04:13:20.859Z,16.42
2022-12-20T04:14:24.115Z,15.82
2022-12-20T04:15:27.109Z,15.13
2022-12-20T04:16:31.183Z,14.55
2022-12-20T04:17:34.098Z,14.13
2022-12-20T04:18:37.223Z,13.73
2022-12-20T04:19:40.341Z,15.02
2022-12-20T04:20:43.298Z,15.38
2022-12-20T04:21:46.623Z,15.65
2022-12-20T04:22:51.458Z,15.25
2022-12-20T04:23:55.292Z,14.15
2022-12-20T04:24:58.341Z,13.13
2022-12-20T04:26:02.332Z,15.20
2022-12-20T04:27:05.651Z,15.93
2022-12-20T04:28:08.739Z,15.95
2022-12-20T04:29:11.739Z,13.95
2022-12-20T04:30:15.340Z,15.07
2022-12-20T04:31:23.480Z,13.57
2022-12-20T04:32:27.556Z,13.98
2022-12-20T04:33:31.012Z,14.85
2022-12-20T04:34:34.175Z,10.57
2022-12-20T04:35:38.595Z,8.50
2022-12-20T04:36:41.680Z,15.70
2022-12-20T04:37:45.258Z,10.07
2022-12-20T04:38:48.348Z,13.00
2022-12-20T04:39:51.595Z,14.23
2022-12-20T04:40:55.749Z,14.85
2022-12-20T04:41:58.809Z,15.57
2022-12-20T04:43:01.844Z,16.17
2022-12-20T04:44:04.824Z,16.25
2022-12-20T04:45:08.517Z,15.25
2022-12-20T04:46:11.487Z,15.93
2022-12-20T04:47:14.415Z,15.07
2022-12-20T04:48:55.100Z,15.02
2022-12-20T04:49:43.920Z,14.98
2022-12-20T04:50:52.019Z,12.35
2022-12-20T04:51:55.465Z,16.25
2022-12-20T04:53:16.953Z,14.20
2022-12-20T04:54:19.800Z,13.95
2022-12-20T04:55:22.786Z,13.85
2022-12-20T04:56:29.011Z,14.87
2022-12-20T04:57:32.007Z,13.23
2022-12-20T04:58:35.243Z,15.38
2022-12-20T04:59:38.440Z,13.82
2022-12-20T05:00:41.601Z,13.23
2022-12-20T05:01:44.765Z,14.57
2022-12-20T05:02:47.828Z,14.45
2022-12-20T05:03:51.378Z,15.13
2022-12-20T05:04:54.295Z,15.27
2022-12-20T05:05:57.507Z,15.88
2022-12-20T05:07:00.624Z,12.80
2022-12-20T05:08:04.806Z,13.85
2022-12-20T05:09:07.930Z,14.43
2022-12-20T05:10:11.438Z,13.00
2022-12-20T05:11:15.145Z,12.52
2022-12-20T05:12:18.181Z,11.60
2022-12-20T05:13:21.184Z,10.75
2022-12-20T05:14:24.115Z,15.18
2022-12-20T05:15:27.217Z,13.43
2022-12-20T05:16:30.252Z,15.20
2022-12-20T05:17:34.043Z,13.02
2022-12-20T05:18:41.632Z,12.57
2022-12-20T05:19:48.025Z,13.65
2022-12-20T05:21:11.721Z,14.27
2022-12-20T05:22:33.226Z,14.40
2022-12-20T05:23:55.457Z,14.05
2022-12-20T05:25:17.165Z,13.32
2022-12-20T05:27:23.784Z,11.63
2022-12-20T05:28:29.514Z,11.40
2022-12-20T05:29:32.565Z,13.30
2022-12-20T05:30:35.843Z,14.10
2022-12-20T05:31:39.034Z,13.38
2022-12-20T05:32:45.850Z,14.18
2022-12-20T05:33:48.800Z,13.62
2022-12-20T05:34:51.620Z,14.18
2022-12-20T05:35:55.555Z,14.80
2022-12-20T05:36:58.516Z,13.23
2022-12-20T05:38:02.903Z,14.13
2022-12-20T05:39:06.417Z,13.82
2022-12-20T05:40:10.592Z,13.60
2022-12-20T05:41:13.707Z,12.07
2022-12-20T05:42:16.880Z,14.00
2022-12-20T05:43:21.092Z,15.45
2022-12-20T05:44:24.201Z,13.30
2022-12-20T05:45:29.265Z,12.88
2022-12-20T05:46:32.360Z,14.55
2022-12-20T05:47:35.912Z,14.70
2022-12-20T05:48:38.936Z,13.00
2022-12-20T05:49:42.091Z,13.80
2022-12-20T05:50:46.103Z,14.23
2022-12-20T05:51:49.569Z,12.05
2022-12-20T05:52:52.468Z,13.50
2022-12-20T05:53:55.506Z,13.55
2022-12-20T05:54:58.406Z,12.98
2022-12-20T05:56:01.825Z,12.68
2022-12-20T05:57:04.858Z,13.88
2022-12-20T05:58:08.363Z,14.48
2022-12-20T05:59:11.515Z,14.40
2022-12-20T06:00:15.535Z,14.68
2022-12-20T06:01:18.943Z,12.13
2022-12-20T06:02:22.105Z,11.40
2022-12-20T06:03:25.702Z,14.63
2022-12-20T06:04:28.852Z,13.62
2022-12-20T06:05:32.384Z,13.10
2022-12-20T06:06:35.372Z,14.07
2022-12-20T06:07:38.342Z,14.25
2022-12-20T06:08:41.398Z,13.13
2022-12-20T06:09:44.561Z,12.55
2022-12-20T06:10:48.536Z,13.43
2022-12-20T06:11:51.579Z,13.07
2022-12-20T06:12:54.658Z,14.30
2022-12-20T06:13:57.911Z,13.82
2022-12-20T06:15:00.744Z,14.82
2022-12-20T06:16:04.100Z,13.77
2022-12-20T06:17:07.310Z,13.15
2022-12-20T06:18:11.820Z,13.88
2022-12-20T06:19:20.821Z,15.15
2022-12-20T06:20:25.225Z,14.32
2022-12-20T06:21:28.756Z,12.77
2022-12-20T06:22:34.811Z,14.30
2022-12-20T06:23:37.687Z,10.52
2022-12-20T06:24:45.998Z,13.60
2022-12-20T06:25:51.204Z,10.43
2022-12-20T06:26:54.658Z,14.13
2022-12-20T06:27:58.541Z,14.05
2022-12-20T06:29:02.455Z,14.90
2022-12-20T06:30:06.701Z,15.02
2022-12-20T06:31:11.802Z,14.70
2022-12-20T06:32:14.682Z,14.27
2022-12-20T06:33:17.663Z,14.15
2022-12-20T06:34:21.207Z,14.38
2022-12-20T06:35:24.210Z,13.77
2022-12-20T06:36:27.388Z,13.80
2022-12-20T06:37:30.484Z,14.10
2022-12-20T06:38:33.889Z,14.32
2022-12-20T06:39:37.130Z,13.93
2022-12-20T06:40:40.154Z,15.55
2022-12-20T06:41:43.180Z,14.75
2022-12-20T06:42:46.500Z,13.40
2022-12-20T06:43:49.407Z,14.07
2022-12-20T06:44:52.293Z,13.93
2022-12-20T06:45:55.328Z,14.30
2022-12-20T06:46:58.447Z,12.57
2022-12-20T06:48:01.463Z,14.35
2022-12-20T06:49:04.552Z,14.25
2022-12-20T06:50:08.092Z,12.65
2022-12-20T06:51:14.845Z,13.70
2022-12-20T06:52:17.780Z,13.73
2022-12-20T06:53:20.673Z,15.25
2022-12-20T06:54:23.761Z,13.32
2022-12-20T06:55:27.008Z,14.85
2022-12-20T06:56:30.084Z,14.75
2022-12-20T06:57:33.347Z,15.80
2022-12-20T06:58:36.623Z,15.30
2022-12-20T06:59:39.724Z,14.40
2022-12-20T07:00:42.811Z,7.62
2022-12-20T07:01:46.021Z,14.43
2022-12-20T07:02:53.017Z,14.32
2022-12-20T07:03:56.097Z,14.02
2022-12-20T07:04:59.284Z,14.57
2022-12-20T07:06:02.252Z,13.10
2022-12-20T07:07:05.505Z,13.07
2022-12-20T07:08:09.111Z,12.98
2022-12-20T07:09:12.220Z,14.57
2022-12-20T07:10:15.612Z,13.27
2022-12-20T07:11:18.814Z,13.90
2022-12-20T07:12:22.752Z,13.80
2022-12-20T07:13:26.195Z,10.68
2022-12-20T07:14:29.323Z,13.90
2022-12-20T07:15:32.126Z,15.27
2022-12-20T07:16:36.588Z,11.75
2022-12-20T07:17:40.060Z,13.88
2022-12-20T07:18:44.017Z,14.07
2022-12-20T07:19:50.757Z,13.25
2022-12-20T07:20:54.257Z,14.65
2022-12-20T07:21:57.202Z,13.23
2022-12-20T07:23:00.463Z,13.23
2022-12-20T07:24:03.482Z,14.40
2022-12-20T07:25:07.560Z,14.50
2022-12-20T07:26:11.481Z,14.15
2022-12-20T07:27:14.349Z,14.50
2022-12-20T07:28:17.305Z,12.23
2022-12-20T07:29:20.319Z,13.23
2022-12-20T07:30:23.918Z,14.10
2022-12-20T07:31:29.230Z,15.18
2022-12-20T07:32:32.628Z,13.07
2022-12-20T07:33:35.696Z,12.75
2022-12-20T07:34:38.780Z,13.48
2022-12-20T07:35:41.864Z,8.90
2022-12-20T07:36:45.255Z,12.43
2022-12-20T07:37:48.317Z,12.32
2022-12-20T07:38:51.301Z,11.25
2022-12-20T07:39:54.293Z,11.18
2022-12-20T07:40:57.800Z,9.20
2022-12-20T07:42:01.580Z,13.30
2022-12-20T07:43:05.531Z,13.35
2022-12-20T07:44:08.553Z,9.23
2022-12-20T07:45:11.515Z,13.85
2022-12-20T07:46:16.202Z,12.68
2022-12-20T07:47:19.423Z,13.68
2022-12-20T07:48:22.726Z,10.07
2022-12-20T07:49:25.579Z,13.45
2022-12-20T07:50:29.914Z,13.93
2022-12-20T07:51:40.260Z,13.48
2022-12-20T07:52:47.443Z,13.35
2022-12-20T07:54:03.270Z,12.75
2022-12-20T07:55:08.508Z,9.57
2022-12-20T07:56:14.019Z,12.18
2022-12-20T07:57:22.987Z,11.98
2022-12-20T07:58:27.592Z,13.07
2022-12-20T07:59:41.287Z,12.77
2022-12-20T08:00:45.415Z,9.95
2022-12-20T08:01:49.211Z,14.35
2022-12-20T08:03:02.982Z,13.62
2022-12-20T08:04:11.853Z,12.52
2022-12-20T08:05:16.009Z,11.82
2022-12-20T08:06:19.504Z,14.60
2022-12-20T08:07:23.272Z,12.73
2022-12-20T08:08:26.906Z,12.80
2022-12-20T08:09:34.618Z,12.27
2022-12-20T08:10:39.068Z,11.70
2022-12-20T08:11:45.465Z,13.30
2022-12-20T08:12:49.063Z,14.13
2022-12-20T08:13:57.424Z,13.77
2022-12-20T08:15:01.171Z,13.15
2022-12-20T08:16:04.394Z,13.23
2022-12-20T08:17:07.611Z,11.85
2022-12-20T08:18:10.824Z,12.98
2022-12-20T08:19:13.813Z,11.57
2022-12-20T08:20:17.243Z,9.43
2022-12-20T08:21:20.517Z,12.98
2022-12-20T08:22:23.566Z,13.25
2022-12-20T08:23:26.481Z,9.55
2022-12-20T08:24:29.553Z,12.73
2022-12-20T08:25:41.270Z,12.05
2022-12-20T08:26:44.973Z,12.25
2022-12-20T08:27:48.222Z,13.40
2022-12-20T08:28:54.864Z,13.05
2022-12-20T08:29:57.847Z,13.95
2022-12-20T08:31:02.676Z,12.57
2022-12-20T08:32:05.747Z,12.18
2022-12-20T08:33:08.707Z,13.55
2022-12-20T08:34:11.964Z,12.90
2022-12-20T08:35:14.921Z,13.30
2022-12-20T08:36:17.741Z,12.52
2022-12-20T08:37:23.853Z,13.38
2022-12-20T08:38:28.540Z,13.40
2022-12-20T08:39:31.485Z,12.35
2022-12-20T08:40:34.797Z,14.13
2022-12-20T08:41:38.375Z,12.73
2022-12-20T08:42:41.425Z,13.25
2022-12-20T08:43:44.611Z,11.02
2022-12-20T08:44:47.673Z,12.80
2022-12-20T08:45:59.943Z,10.93
2022-12-20T08:47:02.957Z,12.43
2022-12-20T08:48:05.900Z,12.05
2022-12-20T08:49:08.933Z,11.68
2022-12-20T08:50:14.095Z,12.57
2022-12-20T08:51:17.038Z,12.20
2022-12-20T08:52:20.031Z,8.63
2022-12-20T08:53:23.043Z,14.27
2022-12-20T08:54:25.963Z,12.95
2022-12-20T08:55:29.625Z,12.98
2022-12-20T08:56:32.621Z,13.00
2022-12-20T08:57:39.000Z,13.43
2022-12-20T08:58:44.511Z,13.13
2022-12-20T08:59:47.424Z,11.93
2022-12-20T09:00:50.354Z,12.25
2022-12-20T09:01:55.086Z,12.80
2022-12-20T09:02:58.231Z,13.00
2022-12-20T09:04:01.411Z,12.20
2022-12-20T09:05:08.822Z,14.27
2022-12-20T09:06:15.046Z,13.62
2022-12-20T09:07:18.034Z,12.30
2022-12-20T09:08:20.845Z,9.52
2022-12-20T09:09:23.852Z,11.90
2022-12-20T09:10:26.860Z,12.90
2022-12-20T09:11:30.906Z,13.18
2022-12-20T09:12:37.925Z,12.80
2022-12-20T09:13:44.274Z,12.20
2022-12-20T09:14:47.426Z,13.35
2022-12-20T09:15:50.498Z,13.68
2022-12-20T09:16:53.670Z,12.13
2022-12-20T09:17:56.698Z,12.18
2022-12-20T09:19:05.419Z,14.25
2022-12-20T09:20:09.854Z,12.05
2022-12-20T09:21:12.889Z,12.13
2022-12-20T09:22:15.976Z,13.07
2022-12-20T09:23:19.166Z,11.73
2022-12-20T09:24:22.047Z,12.48
2022-12-20T09:25:25.115Z,13.27
2022-12-20T09:26:28.219Z,13.18
2022-12-20T09:27:31.275Z,11.80
2022-12-20T09:28:35.777Z,13.15
2022-12-20T09:29:38.704Z,12.07
2022-12-20T09:30:41.763Z,12.93
2022-12-20T09:31:45.153Z,11.93
2022-12-20T09:32:52.093Z,13.20
2022-12-20T09:33:59.519Z,13.65
2022-12-20T09:35:03.588Z,13.70
2022-12-20T09:36:07.488Z,12.95
2022-12-20T09:37:11.186Z,13.02
2022-12-20T09:38:14.581Z,13.60
2022-12-20T09:39:17.655Z,12.73
2022-12-20T09:40:24.433Z,12.95
2022-12-20T09:41:38.444Z,12.73
2022-12-20T09:42:41.428Z,13.68
2022-12-20T09:43:46.017Z,13.07
2022-12-20T09:44:52.914Z,13.05
2022-12-20T09:46:00.286Z,13.82
2022-12-20T09:47:23.371Z,12.35
2022-12-20T09:48:38.271Z,12.50
2022-12-20T09:49:45.874Z,12.90
2022-12-20T09:51:22.656Z,12.68
2022-12-20T09:53:03.791Z,12.57
2022-12-20T09:54:18.940Z,12.77
2022-12-20T09:55:39.685Z,12.63
2022-12-20T09:57:07.660Z,13.60
2022-12-20T09:58:34.350Z,12.32
2022-12-20T09:59:43.265Z,11.55
2022-12-20T10:02:07.971Z,11.82
2022-12-20T10:03:26.632Z,12.55
2022-12-20T10:04:31.705Z,13.32
2022-12-20T10:05:54.978Z,13.25
2022-12-20T10:06:58.043Z,13.68
2022-12-20T10:08:24.664Z,13.82
2022-12-20T10:09:36.657Z,11.45
2022-12-20T10:10:56.519Z,13.10
2022-12-20T10:12:17.924Z,12.57
2022-12-20T10:13:23.520Z,14.15
2022-12-20T10:15:01.028Z,13.07
2022-12-20T10:16:22.475Z,12.95
2022-12-20T10:17:36.333Z,13.43
2022-12-20T10:18:54.044Z,12.18
2022-12-20T10:19:57.026Z,12.40
2022-12-20T10:21:18.297Z,12.88
2022-12-20T10:22:26.623Z,13.77
2022-12-20T10:23:58.325Z,14.23
2022-12-20T10:25:27.821Z,14.75
2022-12-20T10:26:34.122Z,13.75
2022-12-20T10:27:42.157Z,12.63
2022-12-20T10:28:49.223Z,12.52
2022-12-20T10:29:55.670Z,12.77
2022-12-20T10:31:13.419Z,13.68
2022-12-20T10:32:22.712Z,12.90
2022-12-20T10:33:31.912Z,14.05
2022-12-20T10:34:39.002Z,15.02
2022-12-20T10:35:44.256Z,17.62
2022-12-20T10:37:10.090Z,13.93
2022-12-20T10:38:17.994Z,13.07
2022-12-20T10:39:44.848Z,12.35
2022-12-20T10:41:23.456Z,12.88
2022-12-20T10:42:41.364Z,13.18
2022-12-20T10:43:48.836Z,12.43
2022-12-20T10:44:52.221Z,13.38
2022-12-20T10:46:03.884Z,13.38
2022-12-20T10:47:32.052Z,13.52
2022-12-20T10:48:38.194Z,13.10
2022-12-20T10:49:41.603Z,11.88
2022-12-20T10:51:16.920Z,12.43
2022-12-20T10:52:20.043Z,12.45
2022-12-20T10:53:25.767Z,12.20
2022-12-20T10:54:33.933Z,13.68
2022-12-20T10:55:41.590Z,13.07
2022-12-20T10:56:56.817Z,11.35
2022-12-20T10:58:04.137Z,10.70
2022-12-20T10:59:16.645Z,12.45
2022-12-20T11:00:31.334Z,11.38
2022-12-20T11:01:36.952Z,12.75
2022-12-20T11:02:42.787Z,12.75
2022-12-20T11:04:07.888Z,11.77
2022-12-20T11:05:10.902Z,12.00
2022-12-20T11:06:22.031Z,11.12
2022-12-20T11:07:33.498Z,10.32
2022-12-20T11:08:44.946Z,11.60
2022-12-20T11:09:57.315Z,12.15
2022-12-20T11:11:12.218Z,12.43
2022-12-20T11:12:17.260Z,11.05
2022-12-20T11:13:27.126Z,12.60
2022-12-20T11:14:38.670Z,12.35
2022-12-20T11:16:56.856Z,10.05
2022-12-20T11:18:38.066Z,12.02
2022-12-20T11:19:55.548Z,11.65
2022-12-20T11:21:14.633Z,12.25
2022-12-20T11:22:44.253Z,11.95
2022-12-20T11:24:02.694Z,11.55
2022-12-20T11:25:21.165Z,12.57
2022-12-20T11:26:52.264Z,12.73
2022-12-20T11:28:17.819Z,11.18
2022-12-20T11:29:26.978Z,11.80
2022-12-20T11:31:04.433Z,12.57
2022-12-20T11:32:29.950Z,12.25
2022-12-20T11:34:04.741Z,12.18
2022-12-20T11:35:35.985Z,11.63
2022-12-20T11:36:47.801Z,11.48
2022-12-20T11:37:53.507Z,12.37
2022-12-20T11:39:04.576Z,12.25
2022-12-20T11:40:44.501Z,12.25
2022-12-20T11:42:14.881Z,12.13
2022-12-20T11:43:54.211Z,10.95
2022-12-20T11:45:14.018Z,11.15
2022-12-20T11:46:35.172Z,12.10
2022-12-20T11:48:02.283Z,12.57
2022-12-20T11:49:45.675Z,12.13
2022-12-20T11:51:07.534Z,12.55
2022-12-20T11:52:37.260Z,12.50
2022-12-20T11:53:50.766Z,11.65
2022-12-20T11:55:06.860Z,12.43
2022-12-20T11:56:31.509Z,11.30
2022-12-20T11:58:16.292Z,12.70
2022-12-20T11:59:35.760Z,12.35
2022-12-20T12:00:41.870Z,11.30
2022-12-20T12:01:54.452Z,11.98
2022-12-20T12:03:11.379Z,12.57
2022-12-20T12:04:32.057Z,11.73
2022-12-20T12:05:58.865Z,11.27
2022-12-20T12:07:26.093Z,11.65
2022-12-20T12:08:39.563Z,12.57
2022-12-20T12:09:52.380Z,11.77
2022-12-20T12:12:04.578Z,13.00
2022-12-20T12:12:57.750Z,12.32
2022-12-20T12:14:03.856Z,11.07
2022-12-20T12:15:27.592Z,11.73
2022-12-20T12:16:39.788Z,12.00
2022-12-20T12:17:47.428Z,12.55
2022-12-20T12:18:50.995Z,11.75
2022-12-20T12:19:58.018Z,11.25
2022-12-20T12:21:09.966Z,11.60
2022-12-20T12:22:21.114Z,12.00
2022-12-20T12:23:42.483Z,11.80
2022-12-20T12:24:54.786Z,12.07
2022-12-20T12:26:02.592Z,11.70
2022-12-20T12:27:09.787Z,11.40
2022-12-20T12:28:25.280Z,13.38
2022-12-20T12:29:34.719Z,12.48
2022-12-20T12:30:44.807Z,12.70
2022-12-20T12:31:59.874Z,13.02
2022-12-20T12:33:16.472Z,13.02
2022-12-20T12:34:34.320Z,11.55
2022-12-20T12:36:11.039Z,11.75
2022-12-20T12:38:03.851Z,12.40
2022-12-20T12:40:54.314Z,12.37
2022-12-20T12:42:20.360Z,11.05
2022-12-20T12:43:49.892Z,12.98
2022-12-20T12:45:00.943Z,11.40
2022-12-20T12:46:14.487Z,11.95
2022-12-20T12:47:36.480Z,11.98
2022-12-20T12:48:50.166Z,11.77
2022-12-20T12:49:54.987Z,12.20
2022-12-20T12:50:59.285Z,12.00
2022-12-20T12:52:05.456Z,13.18
2022-12-20T12:53:12.388Z,12.57
2022-12-20T12:54:19.679Z,12.77
2022-12-20T12:55:42.605Z,12.48
2022-12-20T12:56:47.877Z,12.13
2022-12-20T12:57:58.857Z,11.77
2022-12-20T12:59:09.739Z,12.57
2022-12-20T13:01:02.301Z,12.60
2022-12-20T13:02:15.426Z,11.75
2022-12-20T13:03:46.991Z,12.52
2022-12-20T13:05:10.675Z,12.02
2022-12-20T13:06:26.110Z,11.23
2022-12-20T13:07:44.066Z,12.15
2022-12-20T13:08:53.918Z,11.65
2022-12-20T13:09:56.994Z,12.23
2022-12-20T13:11:02.020Z,12.32
2022-12-20T13:12:39.008Z,13.07
2022-12-20T13:13:43.019Z,13.20
2022-12-20T13:14:45.965Z,12.00
2022-12-20T13:15:51.601Z,11.80
2022-12-20T13:17:24.053Z,13.20
2022-12-20T13:18:29.530Z,11.55
2022-12-20T13:19:36.251Z,12.32
2022-12-20T13:20:39.742Z,12.65
2022-12-20T13:21:48.675Z,12.82
2022-12-20T13:23:12.962Z,12.27
2022-12-20T13:24:48.874Z,12.35
2022-12-20T13:25:55.851Z,12.65
2022-12-20T13:27:00.468Z,12.60
2022-12-20T13:28:22.915Z,12.77
2022-12-20T13:29:36.615Z,12.70
2022-12-20T13:30:39.770Z,12.60
2022-12-20T13:31:42.804Z,12.60
2022-12-20T13:32:51.921Z,11.25
2022-12-20T13:33:54.801Z,12.45
2022-12-20T13:34:58.494Z,11.40
2022-12-20T13:36:06.139Z,12.15
2022-12-20T13:37:28.442Z,12.30
2022-12-20T13:38:47.236Z,11.12
2022-12-20T13:39:50.756Z,11.25
2022-12-20T13:40:59.335Z,13.40
2022-12-20T13:42:31.299Z,11.88
2022-12-20T13:43:42.695Z,12.40
2022-12-20T13:44:48.089Z,12.65
2022-12-20T13:45:54.011Z,10.75
2022-12-20T13:47:15.707Z,12.02
2022-12-20T13:48:28.564Z,12.25
2022-12-20T13:49:49.565Z,11.98
2022-12-20T13:50:55.683Z,12.05
2022-12-20T13:52:23.271Z,12.23
2022-12-20T13:53:28.282Z,11.15
2022-12-20T13:54:31.218Z,11.65
2022-12-20T13:55:36.402Z,10.20
2022-12-20T13:56:59.768Z,11.43
2022-12-20T13:58:16.503Z,11.75
2022-12-20T13:59:31.477Z,12.18
2022-12-20T14:00:34.822Z,12.82
2022-12-20T14:01:47.184Z,10.70
2022-12-20T14:02:50.418Z,11.43
2022-12-20T14:03:54.288Z,11.75
2022-12-20T14:05:28.844Z,11.55
2022-12-20T14:06:32.077Z,11.68
2022-12-20T14:07:35.733Z,13.05
2022-12-20T14:08:44.162Z,11.73
2022-12-20T14:09:55.440Z,13.73
2022-12-20T14:11:27.288Z,12.77
2022-12-20T14:12:36.571Z,13.38
2022-12-20T14:13:41.373Z,11.30
2022-12-20T14:14:46.512Z,13.10
2022-12-20T14:15:50.401Z,11.77
2022-12-20T14:16:53.709Z,11.95
2022-12-20T14:17:57.280Z,11.60
2022-12-20T14:19:07.145Z,12.40
2022-12-20T14:20:14.250Z,13.13
2022-12-20T14:21:19.273Z,12.43
2022-12-20T14:22:22.202Z,12.80
2022-12-20T14:23:45.877Z,12.18
2022-12-20T14:24:48.996Z,12.52
2022-12-20T14:25:54.005Z,12.18
2022-12-20T14:26:57.183Z,12.35
2022-12-20T14:28:00.736Z,12.27
2022-12-20T14:29:10.971Z,12.15
2022-12-20T14:30:27.597Z,11.93
2022-12-20T14:31:33.983Z,11.93
2022-12-20T14:32:37.798Z,13.02
2022-12-20T14:33:42.521Z,12.15
2022-12-20T14:34:46.586Z,12.13
2022-12-20T14:35:51.335Z,13.38
2022-12-20T14:37:29.021Z,11.88
2022-12-20T14:38:32.265Z,11.57
2022-12-20T14:39:36.304Z,12.82
2022-12-20T14:40:43.276Z,13.62
2022-12-20T14:41:46.745Z,11.63
2022-12-20T14:42:49.806Z,12.37
2022-12-20T14:43:57.295Z,12.43
2022-12-20T14:45:21.652Z,12.82
2022-12-20T14:46:25.003Z,12.48